sensor_id;sensor_type;location;lat;lon;timestamp;P1;P2;P0
55754;PMS5003;41674;52.290;-1.474;2023-04-03T00:02:04;4;4;
55754;PMS5003;41674;52.290;-1.474;2023-04-03T00:04:34;5;5;
55754;PMS5003;41674;52.290;-1.474;2023-04-03T00:07:03;5;4;
55754;PMS5003;41674;52.290;-1.474;2023-04-03T00:09:33;6;6;
55754;PMS5003;41674;52.290;-1.474;2023-04-03T00:12:03;4;4;
55754;PMS5003;41674;52.290;-1.474;2023-04-03T00:14:33;6;6;
55754;PMS5003;41674;52.290;-1.474;2023-04-03T00:17:03;4;4;
55754;PMS5003;41674;52.290;-1.474;2023-04-03T00:19:32;5;5;
55754;PMS5003;41674;52.290;-1.474;2023-04-03T00:22:02;6;5;
55754;PMS5003;41674;52.290;-1.474;2023-04-03T00:24:32;7;6;
55754;PMS5003;41674;52.290;-1.474;2023-04-03T00:27:02;7;7;
55754;PMS5003;41674;52.290;-1.474;2023-04-03T00:29:31;5;5;
55754;PMS5003;41674;52.290;-1.474;2023-04-03T00:32:01;5;5;
55754;PMS5003;41674;52.290;-1.474;2023-04-03T00:34:31;9;7;
55754;PMS5003;41674;52.290;-1.474;2023-04-03T00:37:05;7;7;
55754;PMS5003;41674;52.290;-1.474;2023-04-03T00:39:30;6;6;
55754;PMS5003;41674;52.290;-1.474;2023-04-03T00:41:59;7;7;
55754;PMS5003;41674;52.290;-1.474;2023-04-03T00:46:59;9;9;
55754;PMS5003;41674;52.290;-1.474;2023-04-03T00:49:28;10;9;
55754;PMS5003;41674;52.290;-1.474;2023-04-03T00:52:02;9;9;
55754;PMS5003;41674;52.290;-1.474;2023-04-03T00:54:27;12;10;
55754;PMS5003;41674;52.290;-1.474;2023-04-03T00:56:57;15;12;
55754;PMS5003;41674;52.290;-1.474;2023-04-03T00:59:27;12;11;
55754;PMS5003;41674;52.290;-1.474;2023-04-03T01:01:56;15;12;
55754;PMS5003;41674;52.290;-1.474;2023-04-03T01:06:56;16;16;
55754;PMS5003;41674;52.290;-1.474;2023-04-03T01:09:25;14;12;
55754;PMS5003;41674;52.290;-1.474;2023-04-03T01:14:24;16;13;
55754;PMS5003;41674;52.290;-1.474;2023-04-03T01:16:54;12;12;
55754;PMS5003;41674;52.290;-1.474;2023-04-03T01:19:23;12;11;
55754;PMS5003;41674;52.290;-1.474;2023-04-03T01:21:56;11;9;
55754;PMS5003;41674;52.290;-1.474;2023-04-03T01:24:30;10;8;
55754;PMS5003;41674;52.290;-1.474;2023-04-03T01:26:52;11;9;
55754;PMS5003;41674;52.290;-1.474;2023-04-03T01:29:23;9;9;
55754;PMS5003;41674;52.290;-1.474;2023-04-03T01:31:53;8;6;
55754;PMS5003;41674;52.290;-1.474;2023-04-03T01:34:21;11;8;
55754;PMS5003;41674;52.290;-1.474;2023-04-03T01:36:50;8;7;
55754;PMS5003;41674;52.290;-1.474;2023-04-03T01:39:20;7;6;
55754;PMS5003;41674;52.290;-1.474;2023-04-03T01:41:50;8;5;
55754;PMS5003;41674;52.290;-1.474;2023-04-03T01:44:20;7;7;
55754;PMS5003;41674;52.290;-1.474;2023-04-03T01:46:49;9;8;
55754;PMS5003;41674;52.290;-1.474;2023-04-03T01:49:19;10;9;
55754;PMS5003;41674;52.290;-1.474;2023-04-03T01:51:49;8;6;
55754;PMS5003;41674;52.290;-1.474;2023-04-03T01:54:18;6;5;
55754;PMS5003;41674;52.290;-1.474;2023-04-03T01:56:48;10;7;
55754;PMS5003;41674;52.290;-1.474;2023-04-03T01:59:18;8;8;
55754;PMS5003;41674;52.290;-1.474;2023-04-03T02:01:48;7;7;
55754;PMS5003;41674;52.290;-1.474;2023-04-03T02:04:17;8;6;
55754;PMS5003;41674;52.290;-1.474;2023-04-03T02:06:47;8;8;
55754;PMS5003;41674;52.290;-1.474;2023-04-03T02:09:17;7;7;
55754;PMS5003;41674;52.290;-1.474;2023-04-03T02:11:47;8;7;
55754;PMS5003;41674;52.290;-1.474;2023-04-03T02:14:16;8;8;
55754;PMS5003;41674;52.290;-1.474;2023-04-03T02:16:46;7;7;
55754;PMS5003;41674;52.290;-1.474;2023-04-03T02:19:15;9;7;
55754;PMS5003;41674;52.290;-1.474;2023-04-03T02:21:45;8;8;
55754;PMS5003;41674;52.290;-1.474;2023-04-03T02:24:15;10;9;
55754;PMS5003;41674;52.290;-1.474;2023-04-03T02:26:44;8;7;
55754;PMS5003;41674;52.290;-1.474;2023-04-03T02:29:14;7;7;
55754;PMS5003;41674;52.290;-1.474;2023-04-03T02:31:44;8;6;
55754;PMS5003;41674;52.290;-1.474;2023-04-03T02:34:14;8;6;
55754;PMS5003;41674;52.290;-1.474;2023-04-03T02:36:43;9;7;
55754;PMS5003;41674;52.290;-1.474;2023-04-03T02:39:13;7;4;
55754;PMS5003;41674;52.290;-1.474;2023-04-03T02:41:43;5;5;
55754;PMS5003;41674;52.290;-1.474;2023-04-03T02:44:13;8;7;
55754;PMS5003;41674;52.290;-1.474;2023-04-03T02:46:43;7;5;
55754;PMS5003;41674;52.290;-1.474;2023-04-03T02:49:12;12;8;
55754;PMS5003;41674;52.290;-1.474;2023-04-03T02:51:42;6;5;
55754;PMS5003;41674;52.290;-1.474;2023-04-03T02:54:11;6;6;
55754;PMS5003;41674;52.290;-1.474;2023-04-03T02:56:40;5;4;
55754;PMS5003;41674;52.290;-1.474;2023-04-03T02:59:10;11;7;
55754;PMS5003;41674;52.290;-1.474;2023-04-03T03:01:40;6;6;
55754;PMS5003;41674;52.290;-1.474;2023-04-03T03:04:10;7;7;
55754;PMS5003;41674;52.290;-1.474;2023-04-03T03:06:39;9;7;
55754;PMS5003;41674;52.290;-1.474;2023-04-03T03:09:09;8;7;
55754;PMS5003;41674;52.290;-1.474;2023-04-03T03:11:38;7;6;
55754;PMS5003;41674;52.290;-1.474;2023-04-03T03:14:09;5;5;
55754;PMS5003;41674;52.290;-1.474;2023-04-03T03:16:38;5;5;
55754;PMS5003;41674;52.290;-1.474;2023-04-03T03:19:08;10;7;
55754;PMS5003;41674;52.290;-1.474;2023-04-03T03:21:37;8;6;
55754;PMS5003;41674;52.290;-1.474;2023-04-03T03:24:07;7;6;
55754;PMS5003;41674;52.290;-1.474;2023-04-03T03:26:36;4;4;
55754;PMS5003;41674;52.290;-1.474;2023-04-03T03:29:06;10;6;
55754;PMS5003;41674;52.290;-1.474;2023-04-03T03:31:36;10;7;
55754;PMS5003;41674;52.290;-1.474;2023-04-03T03:34:06;5;5;
55754;PMS5003;41674;52.290;-1.474;2023-04-03T03:36:35;9;9;
55754;PMS5003;41674;52.290;-1.474;2023-04-03T03:39:05;8;6;
55754;PMS5003;41674;52.290;-1.474;2023-04-03T03:41:35;9;7;
55754;PMS5003;41674;52.290;-1.474;2023-04-03T03:44:05;8;8;
55754;PMS5003;41674;52.290;-1.474;2023-04-03T03:46:35;6;6;
55754;PMS5003;41674;52.290;-1.474;2023-04-03T03:49:04;6;5;
55754;PMS5003;41674;52.290;-1.474;2023-04-03T03:51:34;7;7;
55754;PMS5003;41674;52.290;-1.474;2023-04-03T03:54:04;6;6;
55754;PMS5003;41674;52.290;-1.474;2023-04-03T03:56:34;10;6;
55754;PMS5003;41674;52.290;-1.474;2023-04-03T03:59:03;7;6;
55754;PMS5003;41674;52.290;-1.474;2023-04-03T04:01:33;6;6;
55754;PMS5003;41674;52.290;-1.474;2023-04-03T04:04:03;7;7;
55754;PMS5003;41674;52.290;-1.474;2023-04-03T04:06:32;10;9;
55754;PMS5003;41674;52.290;-1.474;2023-04-03T04:09:02;11;8;
55754;PMS5003;41674;52.290;-1.474;2023-04-03T04:11:37;7;7;
55754;PMS5003;41674;52.290;-1.474;2023-04-03T04:14:01;8;8;
55754;PMS5003;41674;52.290;-1.474;2023-04-03T04:16:31;4;3;
55754;PMS5003;41674;52.290;-1.474;2023-04-03T04:19:01;11;8;
55754;PMS5003;41674;52.290;-1.474;2023-04-03T04:21:31;11;11;
55754;PMS5003;41674;52.290;-1.474;2023-04-03T04:24:00;13;11;
55754;PMS5003;41674;52.290;-1.474;2023-04-03T04:26:30;13;12;
55754;PMS5003;41674;52.290;-1.474;2023-04-03T04:29:00;14;12;
55754;PMS5003;41674;52.290;-1.474;2023-04-03T04:31:29;12;10;
55754;PMS5003;41674;52.290;-1.474;2023-04-03T04:33:59;15;12;
55754;PMS5003;41674;52.290;-1.474;2023-04-03T04:36:29;11;10;
55754;PMS5003;41674;52.290;-1.474;2023-04-03T04:38:59;14;12;
55754;PMS5003;41674;52.290;-1.474;2023-04-03T04:41:28;14;14;
55754;PMS5003;41674;52.290;-1.474;2023-04-03T04:43:57;15;13;
55754;PMS5003;41674;52.290;-1.474;2023-04-03T04:46:27;12;11;
55754;PMS5003;41674;52.290;-1.474;2023-04-03T04:48:57;19;14;
55754;PMS5003;41674;52.290;-1.474;2023-04-03T04:51:26;17;16;
55754;PMS5003;41674;52.290;-1.474;2023-04-03T04:53:56;14;14;
55754;PMS5003;41674;52.290;-1.474;2023-04-03T04:56:26;15;14;
55754;PMS5003;41674;52.290;-1.474;2023-04-03T04:58:55;15;13;
55754;PMS5003;41674;52.290;-1.474;2023-04-03T05:01:24;16;14;
55754;PMS5003;41674;52.290;-1.474;2023-04-03T05:03:54;17;16;
55754;PMS5003;41674;52.290;-1.474;2023-04-03T05:06:24;16;14;
55754;PMS5003;41674;52.290;-1.474;2023-04-03T05:08:53;15;14;
55754;PMS5003;41674;52.290;-1.474;2023-04-03T05:11:22;19;16;
55754;PMS5003;41674;52.290;-1.474;2023-04-03T05:13:53;17;15;
55754;PMS5003;41674;52.290;-1.474;2023-04-03T05:16:21;16;16;
55754;PMS5003;41674;52.290;-1.474;2023-04-03T05:18:51;18;13;
55754;PMS5003;41674;52.290;-1.474;2023-04-03T05:21:21;18;17;
55754;PMS5003;41674;52.290;-1.474;2023-04-03T05:23:50;17;16;
55754;PMS5003;41674;52.290;-1.474;2023-04-03T05:26:21;16;14;
55754;PMS5003;41674;52.290;-1.474;2023-04-03T05:28:50;15;15;
55754;PMS5003;41674;52.290;-1.474;2023-04-03T05:31:19;12;12;
55754;PMS5003;41674;52.290;-1.474;2023-04-03T05:33:48;14;13;
55754;PMS5003;41674;52.290;-1.474;2023-04-03T05:36:18;10;10;
55754;PMS5003;41674;52.290;-1.474;2023-04-03T05:38:48;16;13;
55754;PMS5003;41674;52.290;-1.474;2023-04-03T05:41:18;12;11;
55754;PMS5003;41674;52.290;-1.474;2023-04-03T05:43:47;16;15;
55754;PMS5003;41674;52.290;-1.474;2023-04-03T05:46:17;11;11;
55754;PMS5003;41674;52.290;-1.474;2023-04-03T05:48:47;12;12;
55754;PMS5003;41674;52.290;-1.474;2023-04-03T05:51:17;13;12;
55754;PMS5003;41674;52.290;-1.474;2023-04-03T05:53:46;12;11;
55754;PMS5003;41674;52.290;-1.474;2023-04-03T05:56:16;14;12;
55754;PMS5003;41674;52.290;-1.474;2023-04-03T05:58:46;8;8;
55754;PMS5003;41674;52.290;-1.474;2023-04-03T06:01:15;9;9;
55754;PMS5003;41674;52.290;-1.474;2023-04-03T06:03:45;10;10;
55754;PMS5003;41674;52.290;-1.474;2023-04-03T06:06:15;15;11;
55754;PMS5003;41674;52.290;-1.474;2023-04-03T06:08:44;13;11;
55754;PMS5003;41674;52.290;-1.474;2023-04-03T06:11:14;8;8;
55754;PMS5003;41674;52.290;-1.474;2023-04-03T06:13:44;12;10;
55754;PMS5003;41674;52.290;-1.474;2023-04-03T06:16:13;12;11;
55754;PMS5003;41674;52.290;-1.474;2023-04-03T06:18:44;12;12;
55754;PMS5003;41674;52.290;-1.474;2023-04-03T06:21:18;13;12;
55754;PMS5003;41674;52.290;-1.474;2023-04-03T06:23:42;12;11;
55754;PMS5003;41674;52.290;-1.474;2023-04-03T06:26:12;15;15;
55754;PMS5003;41674;52.290;-1.474;2023-04-03T06:28:42;19;16;
55754;PMS5003;41674;52.290;-1.474;2023-04-03T06:31:11;14;14;
55754;PMS5003;41674;52.290;-1.474;2023-04-03T06:33:41;19;18;
55754;PMS5003;41674;52.290;-1.474;2023-04-03T06:36:10;18;18;
55754;PMS5003;41674;52.290;-1.474;2023-04-03T06:38:40;17;15;
55754;PMS5003;41674;52.290;-1.474;2023-04-03T06:41:09;17;15;
55754;PMS5003;41674;52.290;-1.474;2023-04-03T06:43:38;17;17;
55754;PMS5003;41674;52.290;-1.474;2023-04-03T06:46:12;18;17;
55754;PMS5003;41674;52.290;-1.474;2023-04-03T06:48:38;19;17;
55754;PMS5003;41674;52.290;-1.474;2023-04-03T06:51:10;12;11;
55754;PMS5003;41674;52.290;-1.474;2023-04-03T06:53:37;17;15;
55754;PMS5003;41674;52.290;-1.474;2023-04-03T06:56:07;13;12;
55754;PMS5003;41674;52.290;-1.474;2023-04-03T06:58:36;18;16;
55754;PMS5003;41674;52.290;-1.474;2023-04-03T07:01:06;14;13;
55754;PMS5003;41674;52.290;-1.474;2023-04-03T07:03:35;16;12;
55754;PMS5003;41674;52.290;-1.474;2023-04-03T07:06:05;16;14;
55754;PMS5003;41674;52.290;-1.474;2023-04-03T07:08:34;11;11;
55754;PMS5003;41674;52.290;-1.474;2023-04-03T07:11:04;9;9;
55754;PMS5003;41674;52.290;-1.474;2023-04-03T07:13:34;12;10;
55754;PMS5003;41674;52.290;-1.474;2023-04-03T07:16:03;18;14;
55754;PMS5003;41674;52.290;-1.474;2023-04-03T07:18:33;11;11;
55754;PMS5003;41674;52.290;-1.474;2023-04-03T07:21:02;10;10;
55754;PMS5003;41674;52.290;-1.474;2023-04-03T07:23:32;11;10;
55754;PMS5003;41674;52.290;-1.474;2023-04-03T07:26:01;12;11;
55754;PMS5003;41674;52.290;-1.474;2023-04-03T07:28:31;12;9;
55754;PMS5003;41674;52.290;-1.474;2023-04-03T07:31:03;11;8;
55754;PMS5003;41674;52.290;-1.474;2023-04-03T07:33:31;9;8;
55754;PMS5003;41674;52.290;-1.474;2023-04-03T07:36:00;10;10;
55754;PMS5003;41674;52.290;-1.474;2023-04-03T07:38:30;7;7;
55754;PMS5003;41674;52.290;-1.474;2023-04-03T07:41:00;8;8;
55754;PMS5003;41674;52.290;-1.474;2023-04-03T07:43:29;7;7;
55754;PMS5003;41674;52.290;-1.474;2023-04-03T07:45:59;9;8;
55754;PMS5003;41674;52.290;-1.474;2023-04-03T07:48:28;8;7;
55754;PMS5003;41674;52.290;-1.474;2023-04-03T07:51:04;10;8;
55754;PMS5003;41674;52.290;-1.474;2023-04-03T07:53:28;9;9;
55754;PMS5003;41674;52.290;-1.474;2023-04-03T07:55:58;8;8;
55754;PMS5003;41674;52.290;-1.474;2023-04-03T07:58:27;8;7;
55754;PMS5003;41674;52.290;-1.474;2023-04-03T08:00:57;8;7;
55754;PMS5003;41674;52.290;-1.474;2023-04-03T08:03:26;10;7;
55754;PMS5003;41674;52.290;-1.474;2023-04-03T08:06:02;9;9;
55754;PMS5003;41674;52.290;-1.474;2023-04-03T08:08:31;8;6;
55754;PMS5003;41674;52.290;-1.474;2023-04-03T08:10:57;9;8;
55754;PMS5003;41674;52.290;-1.474;2023-04-03T08:13:33;10;9;
55754;PMS5003;41674;52.290;-1.474;2023-04-03T08:20:56;8;8;
55754;PMS5003;41674;52.290;-1.474;2023-04-03T08:28:35;9;8;
55754;PMS5003;41674;52.290;-1.474;2023-04-03T08:33:26;8;7;
55754;PMS5003;41674;52.290;-1.474;2023-04-03T08:36:05;10;6;
55754;PMS5003;41674;52.290;-1.474;2023-04-03T08:43:29;9;9;
55754;PMS5003;41674;52.290;-1.474;2023-04-03T08:45:53;7;7;
55754;PMS5003;41674;52.290;-1.474;2023-04-03T08:50:56;9;7;
55754;PMS5003;41674;52.290;-1.474;2023-04-03T08:53:21;5;5;
55754;PMS5003;41674;52.290;-1.474;2023-04-03T08:55:50;8;7;
55754;PMS5003;41674;52.290;-1.474;2023-04-03T08:58:24;7;5;
55754;PMS5003;41674;52.290;-1.474;2023-04-03T09:03:19;8;5;
55754;PMS5003;41674;52.290;-1.474;2023-04-03T09:05:54;7;6;
55754;PMS5003;41674;52.290;-1.474;2023-04-03T09:08:23;8;8;
55754;PMS5003;41674;52.290;-1.474;2023-04-03T09:10:47;7;7;
55754;PMS5003;41674;52.290;-1.474;2023-04-03T09:13:21;10;5;
55754;PMS5003;41674;52.290;-1.474;2023-04-03T09:15:47;6;6;
55754;PMS5003;41674;52.290;-1.474;2023-04-03T09:18:22;5;4;
55754;PMS5003;41674;52.290;-1.474;2023-04-03T09:20:57;5;4;
55754;PMS5003;41674;52.290;-1.474;2023-04-03T09:23:24;4;4;
55754;PMS5003;41674;52.290;-1.474;2023-04-03T09:25:45;6;6;
55754;PMS5003;41674;52.290;-1.474;2023-04-03T09:30:51;6;6;
55754;PMS5003;41674;52.290;-1.474;2023-04-03T09:33:25;6;5;
55754;PMS5003;41674;52.290;-1.474;2023-04-03T09:38:24;8;6;
55754;PMS5003;41674;52.290;-1.474;2023-04-03T09:45:53;6;6;
55754;PMS5003;41674;52.290;-1.474;2023-04-03T09:48:18;6;3;
55754;PMS5003;41674;52.290;-1.474;2023-04-03T09:53:24;6;6;
55754;PMS5003;41674;52.290;-1.474;2023-04-03T09:55:42;6;6;
55754;PMS5003;41674;52.290;-1.474;2023-04-03T10:00:41;6;4;
55754;PMS5003;41674;52.290;-1.474;2023-04-03T10:03:20;8;6;
55754;PMS5003;41674;52.290;-1.474;2023-04-03T10:05:40;7;5;
55754;PMS5003;41674;52.290;-1.474;2023-04-03T10:08:11;6;6;
55754;PMS5003;41674;52.290;-1.474;2023-04-03T10:10:40;8;6;
55754;PMS5003;41674;52.290;-1.474;2023-04-03T10:13:14;7;5;
55754;PMS5003;41674;52.290;-1.474;2023-04-03T10:15:40;5;5;
55754;PMS5003;41674;52.290;-1.474;2023-04-03T10:18:12;6;6;
55754;PMS5003;41674;52.290;-1.474;2023-04-03T10:20:39;9;7;
55754;PMS5003;41674;52.290;-1.474;2023-04-03T10:23:15;5;5;
55754;PMS5003;41674;52.290;-1.474;2023-04-03T10:25:38;7;7;
55754;PMS5003;41674;52.290;-1.474;2023-04-03T10:28:07;9;7;
55754;PMS5003;41674;52.290;-1.474;2023-04-03T10:30:39;7;5;
55754;PMS5003;41674;52.290;-1.474;2023-04-03T10:33:16;6;6;
55754;PMS5003;41674;52.290;-1.474;2023-04-03T10:35:43;10;9;
55754;PMS5003;41674;52.290;-1.474;2023-04-03T10:38:06;5;5;
55754;PMS5003;41674;52.290;-1.474;2023-04-03T10:40:35;5;5;
55754;PMS5003;41674;52.290;-1.474;2023-04-03T10:43:06;8;8;
55754;PMS5003;41674;52.290;-1.474;2023-04-03T10:45:37;7;7;
55754;PMS5003;41674;52.290;-1.474;2023-04-03T10:48:04;9;7;
55754;PMS5003;41674;52.290;-1.474;2023-04-03T10:50:36;7;7;
55754;PMS5003;41674;52.290;-1.474;2023-04-03T10:53:04;7;7;
55754;PMS5003;41674;52.290;-1.474;2023-04-03T10:55:34;7;7;
55754;PMS5003;41674;52.290;-1.474;2023-04-03T10:58:02;9;9;
55754;PMS5003;41674;52.290;-1.474;2023-04-03T11:00:35;5;5;
55754;PMS5003;41674;52.290;-1.474;2023-04-03T11:03:03;10;8;
55754;PMS5003;41674;52.290;-1.474;2023-04-03T11:05:37;9;8;
55754;PMS5003;41674;52.290;-1.474;2023-04-03T11:08:01;8;6;
55754;PMS5003;41674;52.290;-1.474;2023-04-03T11:10:32;8;8;
55754;PMS5003;41674;52.290;-1.474;2023-04-03T11:13:06;7;7;
55754;PMS5003;41674;52.290;-1.474;2023-04-03T11:15:29;9;7;
55754;PMS5003;41674;52.290;-1.474;2023-04-03T11:17:59;8;7;
55754;PMS5003;41674;52.290;-1.474;2023-04-03T11:20:28;9;8;
55754;PMS5003;41674;52.290;-1.474;2023-04-03T11:22:59;5;5;
55754;PMS5003;41674;52.290;-1.474;2023-04-03T11:25:27;6;6;
55754;PMS5003;41674;52.290;-1.474;2023-04-03T11:27:57;7;6;
55754;PMS5003;41674;52.290;-1.474;2023-04-03T11:30:27;8;7;
55754;PMS5003;41674;52.290;-1.474;2023-04-03T11:33:01;6;6;
55754;PMS5003;41674;52.290;-1.474;2023-04-03T11:35:25;9;7;
55754;PMS5003;41674;52.290;-1.474;2023-04-03T11:37:54;4;4;
55754;PMS5003;41674;52.290;-1.474;2023-04-03T11:40:25;6;6;
55754;PMS5003;41674;52.290;-1.474;2023-04-03T11:42:55;9;8;
55754;PMS5003;41674;52.290;-1.474;2023-04-03T11:47:54;6;5;
55754;PMS5003;41674;52.290;-1.474;2023-04-03T11:50:37;5;5;
55754;PMS5003;41674;52.290;-1.474;2023-04-03T11:53:00;6;6;
55754;PMS5003;41674;52.290;-1.474;2023-04-03T12:02:50;6;6;
55754;PMS5003;41674;52.290;-1.474;2023-04-03T12:05:25;6;6;
55754;PMS5003;41674;52.290;-1.474;2023-04-03T12:10:19;8;6;
55754;PMS5003;41674;52.290;-1.474;2023-04-03T12:12:57;6;6;
55754;PMS5003;41674;52.290;-1.474;2023-04-03T12:15:22;6;4;
55754;PMS5003;41674;52.290;-1.474;2023-04-03T12:17:47;7;6;
55754;PMS5003;41674;52.290;-1.474;2023-04-03T12:27:46;6;6;
55754;PMS5003;41674;52.290;-1.474;2023-04-03T12:30:18;9;8;
55754;PMS5003;41674;52.290;-1.474;2023-04-03T12:32:51;12;9;
55754;PMS5003;41674;52.290;-1.474;2023-04-03T12:35:18;6;6;
55754;PMS5003;41674;52.290;-1.474;2023-04-03T12:37:51;11;9;
55754;PMS5003;41674;52.290;-1.474;2023-04-03T12:40:16;9;9;
55754;PMS5003;41674;52.290;-1.474;2023-04-03T12:42:52;9;9;
55754;PMS5003;41674;52.290;-1.474;2023-04-03T12:45:16;8;8;
55754;PMS5003;41674;52.290;-1.474;2023-04-03T12:47:42;9;8;
55754;PMS5003;41674;52.290;-1.474;2023-04-03T12:50:19;7;7;
55754;PMS5003;41674;52.290;-1.474;2023-04-03T12:52:42;9;8;
55754;PMS5003;41674;52.290;-1.474;2023-04-03T12:55:14;10;8;
55754;PMS5003;41674;52.290;-1.474;2023-04-03T12:57:40;10;8;
55754;PMS5003;41674;52.290;-1.474;2023-04-03T13:02:40;10;10;
55754;PMS5003;41674;52.290;-1.474;2023-04-03T13:05:09;9;8;
55754;PMS5003;41674;52.290;-1.474;2023-04-03T13:07:38;8;8;
55754;PMS5003;41674;52.290;-1.474;2023-04-03T13:10:13;8;8;
55754;PMS5003;41674;52.290;-1.474;2023-04-03T13:12:45;10;9;
55754;PMS5003;41674;52.290;-1.474;2023-04-03T13:15:14;8;7;
55754;PMS5003;41674;52.290;-1.474;2023-04-03T13:17:38;9;9;
55754;PMS5003;41674;52.290;-1.474;2023-04-03T13:20:11;7;7;
55754;PMS5003;41674;52.290;-1.474;2023-04-03T13:22:36;8;7;
55754;PMS5003;41674;52.290;-1.474;2023-04-03T13:25:06;7;5;
55754;PMS5003;41674;52.290;-1.474;2023-04-03T13:27:35;8;7;
55754;PMS5003;41674;52.290;-1.474;2023-04-03T13:30:06;9;9;
55754;PMS5003;41674;52.290;-1.474;2023-04-03T13:32:34;7;6;
55754;PMS5003;41674;52.290;-1.474;2023-04-03T13:37:33;7;7;
55754;PMS5003;41674;52.290;-1.474;2023-04-03T13:40:04;8;6;
55754;PMS5003;41674;52.290;-1.474;2023-04-03T13:42:33;9;8;
55754;PMS5003;41674;52.290;-1.474;2023-04-03T13:45:11;10;8;
55754;PMS5003;41674;52.290;-1.474;2023-04-03T13:47:37;6;6;
55754;PMS5003;41674;52.290;-1.474;2023-04-03T13:50:01;10;9;
55754;PMS5003;41674;52.290;-1.474;2023-04-03T13:52:31;9;9;
55754;PMS5003;41674;52.290;-1.474;2023-04-03T13:55:00;9;9;
55754;PMS5003;41674;52.290;-1.474;2023-04-03T13:57:29;11;8;
55754;PMS5003;41674;52.290;-1.474;2023-04-03T13:59:58;9;8;
55754;PMS5003;41674;52.290;-1.474;2023-04-03T14:02:30;8;8;
55754;PMS5003;41674;52.290;-1.474;2023-04-03T14:04:58;11;11;
55754;PMS5003;41674;52.290;-1.474;2023-04-03T14:07:27;8;8;
55754;PMS5003;41674;52.290;-1.474;2023-04-03T14:09:56;9;9;
55754;PMS5003;41674;52.290;-1.474;2023-04-03T14:12:27;12;10;
55754;PMS5003;41674;52.290;-1.474;2023-04-03T14:14:55;7;6;
55754;PMS5003;41674;52.290;-1.474;2023-04-03T14:17:25;8;7;
55754;PMS5003;41674;52.290;-1.474;2023-04-03T14:19:55;8;8;
55754;PMS5003;41674;52.290;-1.474;2023-04-03T14:22:25;7;7;
55754;PMS5003;41674;52.290;-1.474;2023-04-03T14:24:53;7;7;
55754;PMS5003;41674;52.290;-1.474;2023-04-03T14:27:24;10;10;
55754;PMS5003;41674;52.290;-1.474;2023-04-03T14:29:53;9;8;
55754;PMS5003;41674;52.290;-1.474;2023-04-03T14:32:23;8;8;
55754;PMS5003;41674;52.290;-1.474;2023-04-03T14:34:52;9;8;
55754;PMS5003;41674;52.290;-1.474;2023-04-03T14:37:22;9;8;
55754;PMS5003;41674;52.290;-1.474;2023-04-03T14:39:51;8;8;
55754;PMS5003;41674;52.290;-1.474;2023-04-03T14:42:21;8;8;
55754;PMS5003;41674;52.290;-1.474;2023-04-03T14:44:50;8;8;
55754;PMS5003;41674;52.290;-1.474;2023-04-03T14:47:20;7;7;
55754;PMS5003;41674;52.290;-1.474;2023-04-03T14:49:48;7;7;
55754;PMS5003;41674;52.290;-1.474;2023-04-03T14:52:19;9;7;
55754;PMS5003;41674;52.290;-1.474;2023-04-03T14:54:47;7;7;
55754;PMS5003;41674;52.290;-1.474;2023-04-03T14:57:17;8;8;
55754;PMS5003;41674;52.290;-1.474;2023-04-03T14:59:46;9;9;
55754;PMS5003;41674;52.290;-1.474;2023-04-03T15:04:45;7;7;
55754;PMS5003;41674;52.290;-1.474;2023-04-03T15:07:15;8;8;
55754;PMS5003;41674;52.290;-1.474;2023-04-03T15:09:44;10;8;
55754;PMS5003;41674;52.290;-1.474;2023-04-03T15:12:14;6;6;
55754;PMS5003;41674;52.290;-1.474;2023-04-03T15:14:43;7;7;
55754;PMS5003;41674;52.290;-1.474;2023-04-03T15:17:14;6;6;
55754;PMS5003;41674;52.290;-1.474;2023-04-03T15:19:43;10;10;
55754;PMS5003;41674;52.290;-1.474;2023-04-03T15:22:13;9;8;
55754;PMS5003;41674;52.290;-1.474;2023-04-03T15:24:41;6;6;
55754;PMS5003;41674;52.290;-1.474;2023-04-03T15:27:11;7;7;
55754;PMS5003;41674;52.290;-1.474;2023-04-03T15:29:43;8;7;
55754;PMS5003;41674;52.290;-1.474;2023-04-03T15:32:10;8;7;
55754;PMS5003;41674;52.290;-1.474;2023-04-03T15:34:39;8;8;
55754;PMS5003;41674;52.290;-1.474;2023-04-03T15:37:09;5;5;
55754;PMS5003;41674;52.290;-1.474;2023-04-03T15:39:39;9;9;
55754;PMS5003;41674;52.290;-1.474;2023-04-03T15:42:08;7;7;
55754;PMS5003;41674;52.290;-1.474;2023-04-03T15:44:37;7;7;
55754;PMS5003;41674;52.290;-1.474;2023-04-03T15:47:07;7;7;
55754;PMS5003;41674;52.290;-1.474;2023-04-03T15:49:36;8;8;
55754;PMS5003;41674;52.290;-1.474;2023-04-03T15:52:06;6;6;
55754;PMS5003;41674;52.290;-1.474;2023-04-03T15:54:36;7;7;
55754;PMS5003;41674;52.290;-1.474;2023-04-03T15:57:05;12;9;
55754;PMS5003;41674;52.290;-1.474;2023-04-03T15:59:35;10;10;
55754;PMS5003;41674;52.290;-1.474;2023-04-03T16:02:05;10;7;
55754;PMS5003;41674;52.290;-1.474;2023-04-03T16:04:34;6;6;
55754;PMS5003;41674;52.290;-1.474;2023-04-03T16:07:04;8;8;
55754;PMS5003;41674;52.290;-1.474;2023-04-03T16:09:33;7;7;
55754;PMS5003;41674;52.290;-1.474;2023-04-03T16:12:03;7;6;
55754;PMS5003;41674;52.290;-1.474;2023-04-03T16:14:32;8;6;
55754;PMS5003;41674;52.290;-1.474;2023-04-03T16:17:01;8;8;
55754;PMS5003;41674;52.290;-1.474;2023-04-03T16:19:31;7;7;
55754;PMS5003;41674;52.290;-1.474;2023-04-03T16:22:00;9;8;
55754;PMS5003;41674;52.290;-1.474;2023-04-03T16:24:30;6;6;
55754;PMS5003;41674;52.290;-1.474;2023-04-03T16:26:59;5;5;
55754;PMS5003;41674;52.290;-1.474;2023-04-03T16:29:29;9;8;
55754;PMS5003;41674;52.290;-1.474;2023-04-03T16:31:58;9;9;
55754;PMS5003;41674;52.290;-1.474;2023-04-03T16:34:28;6;6;
55754;PMS5003;41674;52.290;-1.474;2023-04-03T16:36:58;11;10;
55754;PMS5003;41674;52.290;-1.474;2023-04-03T16:39:27;8;8;
55754;PMS5003;41674;52.290;-1.474;2023-04-03T16:41:57;8;8;
55754;PMS5003;41674;52.290;-1.474;2023-04-03T16:44:26;6;6;
55754;PMS5003;41674;52.290;-1.474;2023-04-03T16:46:56;9;8;
55754;PMS5003;41674;52.290;-1.474;2023-04-03T16:49:25;7;7;
55754;PMS5003;41674;52.290;-1.474;2023-04-03T16:51:55;7;6;
55754;PMS5003;41674;52.290;-1.474;2023-04-03T16:54:24;8;5;
55754;PMS5003;41674;52.290;-1.474;2023-04-03T16:56:54;9;8;
55754;PMS5003;41674;52.290;-1.474;2023-04-03T16:59:24;10;9;
55754;PMS5003;41674;52.290;-1.474;2023-04-03T17:01:53;9;7;
55754;PMS5003;41674;52.290;-1.474;2023-04-03T17:04:22;10;10;
55754;PMS5003;41674;52.290;-1.474;2023-04-03T17:06:52;8;8;
55754;PMS5003;41674;52.290;-1.474;2023-04-03T17:09:21;8;8;
55754;PMS5003;41674;52.290;-1.474;2023-04-03T17:11:51;10;7;
55754;PMS5003;41674;52.290;-1.474;2023-04-03T17:14:20;9;9;
55754;PMS5003;41674;52.290;-1.474;2023-04-03T17:16:50;10;8;
55754;PMS5003;41674;52.290;-1.474;2023-04-03T17:19:19;9;8;
55754;PMS5003;41674;52.290;-1.474;2023-04-03T17:21:49;10;10;
55754;PMS5003;41674;52.290;-1.474;2023-04-03T17:24:18;10;10;
55754;PMS5003;41674;52.290;-1.474;2023-04-03T17:26:48;12;10;
55754;PMS5003;41674;52.290;-1.474;2023-04-03T17:29:18;11;10;
55754;PMS5003;41674;52.290;-1.474;2023-04-03T17:31:47;11;11;
55754;PMS5003;41674;52.290;-1.474;2023-04-03T17:34:17;8;8;
55754;PMS5003;41674;52.290;-1.474;2023-04-03T17:36:46;8;8;
55754;PMS5003;41674;52.290;-1.474;2023-04-03T17:39:16;9;9;
55754;PMS5003;41674;52.290;-1.474;2023-04-03T17:41:45;11;11;
55754;PMS5003;41674;52.290;-1.474;2023-04-03T17:44:15;12;10;
55754;PMS5003;41674;52.290;-1.474;2023-04-03T17:46:44;9;9;
55754;PMS5003;41674;52.290;-1.474;2023-04-03T17:49:14;10;10;
55754;PMS5003;41674;52.290;-1.474;2023-04-03T17:51:43;9;8;